Главная страница
METAR-TAF:

METAR-TAF

Аэропорты :

Хёугесунн, Норвегия

широта: 59-21N, долгота: 005-13E, высота над уровнем моря: 2 м

Текущие метеонаблюдения

Эта сводка был подготовлена 7 минут назад, в 13:20 UTC
Ветер 13 Узел от юго-восточный
Температура 6°C
Влажность 70%
Давление 1005 hPa
Видимость 10 км и более
Рассеянная облачность на высоте 1900 фута
небольшой морось

METAR: ENHD 191320Z 14013KT 9999 -DZ BKN019 06/01 Q1005

Время: 14:27 (13:27 UTC)

Прогноз

Эта сводка был подготовлена 2 часа и 27 минут назад, в 11:00 UTC
Прогноз действительный с 19-го 12 UTC до 19-го 21 UTC
Ветер 18 Узел от юго-восточный
Видимость 10 км и более
Отдельные облака на высоте 4000 фута
Рассеянная облачность на высоте 5000 фута
временами
С 19-го 12 UTC до 19-го 15 UTC
Ветер 25 Узел от юго-восточный с порывами до 35 Узел

TAF: ENHD 191100Z 1912/1921 13018KT 9999 SCT040 BKN050 TEMPO 1912/1915 14025G35KT

Метеонаблюдения и прогнозы для более 4000 аэропортов (сводки METAR и TAF).

Имеющиеся станции представлены на карте желтыми и красными точками.

Чтобы увидеть название станции, наведите на нее мышь.

Затем щелкните, чтобы увидеть метеонаблюдения и метеопрогнозы.

Управление картой: чтобы увеличить масштаб, щелкните зеленые кнопки с черным крестиком; чтобы уменьшить масштаб, щелкните зеленую кнопку с тире; для просмотра соседних карт щелкайте зеленые стрелки.


METAR-TAF: